SBUL

Details ICAO SBUL (UDI)
Name TEN CEL AV CESAR BOMBONATO
Region Brazil
Timezone America/Sao_Paulo (UTC-2.0)
Plans Departing 31
Arriving 30
Stats Elevation 3,094 ft / 943 m (AMSL)
Location -18.882843° -48.225593°
Runways 1
Magnetic Variation 21.258° W
Sunrise 2017-12-15 08:31:47 UTC / 2017-12-15 06:31:47 Local
Sunset 2017-12-15 21:47:15 UTC / 2017-12-15 19:47:15 Local
Advertisement - Login to hide

Runways

ID Width Length Bearing (true) Bearing (mag) Surface Threshold Offset Overrun Length
04 148 ft / 45 m 6,418 ft / 1,956 m 22.56° 43.82° Asphalt 0 ft / 0 m 0 ft / 0 m
22 148 ft / 45 m 6,418 ft / 1,956 m 202.55° 223.81° Asphalt 0 ft / 0 m 0 ft / 0 m

Map

Weather


0- 5 10 15 20 25 30 35+ Temperature / ° C

Clouds and Precipitation
Forecast for 2017-12-16 00:00 UTC. Updated an hour ago

Ground ~20,000 ft ~40,000 ft Winds

METAR

Not found

TAF

TAF TAF SBUL 151611Z 1518/1606 05008KT 9999 SCT040 FEW045TCUTX27/1518Z TN20/1605Z PROB40 1518/1523 08007KT 9999 TS SCT040 FEW045CB BECMG 1523/1601 FEW035 PROB40 1601/1606 BKN010 RMK PGO

Frequencies

Tower 118.80 MHz TWR
Approach 120.80 MHz APP
Warning: Do not use this data for real-world aviation or navigation. No guarantee of current accuracy is given.